CheckWX is a tool to help pilots better visualize weather data.  It is not intended as a substitute for an official pre-flight weather briefing.

08:03:17 UTC

KPIT METAR
Pittsburgh International Airport
Pittsburgh, Pennsylvania, USA
Current

12 mins ago

KPIT 150751Z 00000KT 10SM FEW230 13/11 A3022 RMK AO2 SLP237 T01330111
Observed
Sep-15 @ 07:51 UTC
Visibility
10 SM
Flight Rules
VFR
Cloud Levels
  • Few at 23,000' AGL
Temperature
13°C / 55°F
Dewpoint
11°C / 52°F
Humidity
88%
Altimeter
30.22" Hg
Pressure
1023.42 hPa
Previous

1 hour ago

KPIT 150651Z 00000KT 10SM FEW250 13/11 A3023 RMK AO2 SLP240 T01280111
Observed
Sep-15 @ 06:51 UTC
Visibility
10 SM
Flight Rules
VFR
Cloud Levels
  • Few at 25,000' AGL
Temperature
13°C / 55°F
Dewpoint
11°C / 52°F
Humidity
88%
Altimeter
30.23" Hg
Pressure
1023.72 hPa
Previous

2 hours ago

KPIT 150551Z 17003KT 10SM FEW250 14/12 A3024 RMK AO2 SLP241 T01390117 10206 20139 53003
Observed
Sep-15 @ 05:51 UTC
Wind
  • 170° at 3 KTS
Visibility
10 SM
Flight Rules
VFR
Cloud Levels
  • Few at 25,000' AGL
Temperature
14°C / 57°F
Dewpoint
12°C / 54°F
Humidity
88%
Altimeter
30.24" Hg
Pressure
1024.02 hPa